Terminal Aerodrome Forecast
Issued by NWS

Home | Current Version | Previous Version | Text Only | Print | Product List | Glossary On
Versions: 1 2 3 4 5 6 7 8 9 10 11 12 13 14 15 16 17
000
FTUS45 KVEF 061732
TAFVGT
TAF
KVGT 061732Z 0618/0718 05004KT P6SM BKN070 BKN100 BKN200
     FM062200 17006KT P6SM VCTS SCT050 BKN080CB BKN200
     FM070100 29006KT P6SM SCT090 BKN200
     FM071200 16005KT P6SM SCT250=

USA.gov is the U.S. government's official web portal to all federal, state and local government web resources and services.